sensor_id;sensor_type;location;lat;lon;timestamp;pressure;altitude;pressure_sealevel;temperature;humidity
49178;BME280;35016;55.674;37.468;2023-02-28T00:00:30;99492.34;;;-6.96;69.56
49178;BME280;35016;55.674;37.468;2023-02-28T00:02:58;99492.34;;;-6.96;69.43
49178;BME280;35016;55.674;37.468;2023-02-28T00:05:26;99506.50;;;-6.97;69.56
49178;BME280;35016;55.674;37.468;2023-02-28T00:07:54;99476.84;;;-6.99;69.16
49178;BME280;35016;55.674;37.468;2023-02-28T00:10:23;99477.13;;;-7.02;69.10
49178;BME280;35016;55.674;37.468;2023-02-28T00:12:50;99477.44;;;-7.05;69.15
49178;BME280;35016;55.674;37.468;2023-02-28T00:15:18;99473.28;;;-7.07;69.08
49178;BME280;35016;55.674;37.468;2023-02-28T00:17:45;99471.78;;;-7.10;69.43
49178;BME280;35016;55.674;37.468;2023-02-28T00:20:13;99491.34;;;-7.12;69.56
49178;BME280;35016;55.674;37.468;2023-02-28T00:22:40;99465.44;;;-7.17;69.67
49178;BME280;35016;55.674;37.468;2023-02-28T00:25:09;99486.69;;;-7.19;70.00
49178;BME280;35016;55.674;37.468;2023-02-28T00:27:38;99467.72;;;-7.22;70.12
49178;BME280;35016;55.674;37.468;2023-02-28T00:30:06;99467.00;;;-7.24;69.94
49178;BME280;35016;55.674;37.468;2023-02-28T00:32:33;99464.50;;;-7.26;69.77
49178;BME280;35016;55.674;37.468;2023-02-28T00:35:01;99458.56;;;-7.28;69.26
49178;BME280;35016;55.674;37.468;2023-02-28T00:37:28;99463.16;;;-7.30;70.01
49178;BME280;35016;55.674;37.468;2023-02-28T00:39:55;99459.00;;;-7.32;69.97
49178;BME280;35016;55.674;37.468;2023-02-28T00:42:22;99463.75;;;-7.36;70.19
49178;BME280;35016;55.674;37.468;2023-02-28T00:44:49;99455.16;;;-7.38;69.81
49178;BME280;35016;55.674;37.468;2023-02-28T00:47:16;99455.97;;;-7.37;69.94
49178;BME280;35016;55.674;37.468;2023-02-28T00:49:43;99454.19;;;-7.37;69.89
49178;BME280;35016;55.674;37.468;2023-02-28T00:52:10;99444.47;;;-7.36;69.43
49178;BME280;35016;55.674;37.468;2023-02-28T00:54:37;99436.44;;;-7.35;69.73
49178;BME280;35016;55.674;37.468;2023-02-28T00:57:04;99442.53;;;-7.34;69.55
49178;BME280;35016;55.674;37.468;2023-02-28T00:59:31;99445.53;;;-7.29;69.61
49178;BME280;35016;55.674;37.468;2023-02-28T01:01:58;99441.47;;;-7.24;70.10
49178;BME280;35016;55.674;37.468;2023-02-28T01:04:25;99435.94;;;-7.21;69.57
49178;BME280;35016;55.674;37.468;2023-02-28T01:06:52;99432.19;;;-7.18;69.63
49178;BME280;35016;55.674;37.468;2023-02-28T01:09:19;99430.69;;;-7.21;69.45
49178;BME280;35016;55.674;37.468;2023-02-28T01:11:46;99415.28;;;-7.25;69.39
49178;BME280;35016;55.674;37.468;2023-02-28T01:14:14;99417.41;;;-7.29;70.09
49178;BME280;35016;55.674;37.468;2023-02-28T01:16:42;99419.88;;;-7.27;69.63
49178;BME280;35016;55.674;37.468;2023-02-28T01:19:09;99418.91;;;-7.26;70.06
49178;BME280;35016;55.674;37.468;2023-02-28T01:21:37;99414.47;;;-7.26;70.16
49178;BME280;35016;55.674;37.468;2023-02-28T01:24:04;99394.66;;;-7.30;69.93
49178;BME280;35016;55.674;37.468;2023-02-28T01:26:32;99392.19;;;-7.31;69.98
49178;BME280;35016;55.674;37.468;2023-02-28T01:28:59;99385.13;;;-7.31;69.66
49178;BME280;35016;55.674;37.468;2023-02-28T01:31:26;99393.84;;;-7.30;69.84
49178;BME280;35016;55.674;37.468;2023-02-28T01:33:54;99378.50;;;-7.35;69.83
49178;BME280;35016;55.674;37.468;2023-02-28T01:36:22;99377.97;;;-7.38;70.06
49178;BME280;35016;55.674;37.468;2023-02-28T01:38:49;99384.34;;;-7.41;69.45
49178;BME280;35016;55.674;37.468;2023-02-28T01:41:23;99363.59;;;-7.44;69.90
49178;BME280;35016;55.674;37.468;2023-02-28T01:43:53;99362.75;;;-7.44;69.61
49178;BME280;35016;55.674;37.468;2023-02-28T01:46:21;99381.03;;;-7.43;70.39
49178;BME280;35016;55.674;37.468;2023-02-28T01:48:52;99354.72;;;-7.43;69.98
49178;BME280;35016;55.674;37.468;2023-02-28T01:51:22;99358.31;;;-7.44;70.08
49178;BME280;35016;55.674;37.468;2023-02-28T01:53:59;99344.19;;;-7.43;70.24
49178;BME280;35016;55.674;37.468;2023-02-28T01:56:27;99329.50;;;-7.45;69.47
49178;BME280;35016;55.674;37.468;2023-02-28T01:58:56;99320.94;;;-7.47;70.11
49178;BME280;35016;55.674;37.468;2023-02-28T02:01:24;99325.53;;;-7.50;70.19
49178;BME280;35016;55.674;37.468;2023-02-28T02:03:54;99328.16;;;-7.50;69.89
49178;BME280;35016;55.674;37.468;2023-02-28T02:06:32;99319.13;;;-7.47;70.26
49178;BME280;35016;55.674;37.468;2023-02-28T02:09:01;99316.63;;;-7.48;70.40
49178;BME280;35016;55.674;37.468;2023-02-28T02:11:29;99294.94;;;-7.60;69.45
49178;BME280;35016;55.674;37.468;2023-02-28T02:26:58;99291.00;;;-7.46;69.54
49178;BME280;35016;55.674;37.468;2023-02-28T02:29:36;99287.69;;;-7.48;70.18
49178;BME280;35016;55.674;37.468;2023-02-28T02:32:35;99291.13;;;-7.48;69.66
49178;BME280;35016;55.674;37.468;2023-02-28T02:40:23;99279.31;;;-7.44;69.82
49178;BME280;35016;55.674;37.468;2023-02-28T02:45:45;99276.00;;;-7.46;70.38
49178;BME280;35016;55.674;37.468;2023-02-28T02:48:15;99273.38;;;-7.46;70.25
49178;BME280;35016;55.674;37.468;2023-02-28T02:50:54;99268.94;;;-7.45;69.43
49178;BME280;35016;55.674;37.468;2023-02-28T02:53:24;99270.59;;;-7.44;70.29
49178;BME280;35016;55.674;37.468;2023-02-28T02:55:53;99259.91;;;-7.43;69.76
49178;BME280;35016;55.674;37.468;2023-02-28T02:58:27;99252.16;;;-7.44;69.47
49178;BME280;35016;55.674;37.468;2023-02-28T03:01:01;99248.72;;;-7.45;69.67
49178;BME280;35016;55.674;37.468;2023-02-28T03:03:30;99243.59;;;-7.46;69.97
49178;BME280;35016;55.674;37.468;2023-02-28T03:05:59;99236.69;;;-7.47;70.24
49178;BME280;35016;55.674;37.468;2023-02-28T03:08:27;99227.78;;;-7.46;69.77
49178;BME280;35016;55.674;37.468;2023-02-28T03:11:01;99221.84;;;-7.48;70.24
49178;BME280;35016;55.674;37.468;2023-02-28T03:24:33;99210.25;;;-7.56;69.67
49178;BME280;35016;55.674;37.468;2023-02-28T03:27:17;99200.53;;;-7.55;69.86
49178;BME280;35016;55.674;37.468;2023-02-28T03:29:52;99200.53;;;-7.55;70.17
49178;BME280;35016;55.674;37.468;2023-02-28T03:34:55;99191.66;;;-7.54;69.45
49178;BME280;35016;55.674;37.468;2023-02-28T03:37:25;99171.59;;;-7.55;69.36
49178;BME280;35016;55.674;37.468;2023-02-28T03:39:56;99172.56;;;-7.56;70.28
49178;BME280;35016;55.674;37.468;2023-02-28T03:42:28;99177.00;;;-7.57;69.45
49178;BME280;35016;55.674;37.468;2023-02-28T03:45:01;99175.19;;;-7.56;70.03
49178;BME280;35016;55.674;37.468;2023-02-28T03:47:31;99171.06;;;-7.59;70.28
49178;BME280;35016;55.674;37.468;2023-02-28T03:50:05;99165.13;;;-7.61;69.81
49178;BME280;35016;55.674;37.468;2023-02-28T03:52:36;99167.75;;;-7.61;70.09
49178;BME280;35016;55.674;37.468;2023-02-28T03:55:06;99151.16;;;-7.61;69.79
49178;BME280;35016;55.674;37.468;2023-02-28T03:57:40;99153.78;;;-7.61;69.59
49178;BME280;35016;55.674;37.468;2023-02-28T04:02:40;99150.00;;;-7.59;69.55
49178;BME280;35016;55.674;37.468;2023-02-28T04:05:07;99140.47;;;-7.60;69.68
49178;BME280;35016;55.674;37.468;2023-02-28T04:07:35;99138.81;;;-7.61;69.55
49178;BME280;35016;55.674;37.468;2023-02-28T04:10:05;99124.50;;;-7.58;70.52
49178;BME280;35016;55.674;37.468;2023-02-28T04:12:33;99111.34;;;-7.58;70.15
49178;BME280;35016;55.674;37.468;2023-02-28T04:15:00;99099.69;;;-7.56;69.99
49178;BME280;35016;55.674;37.468;2023-02-28T04:17:28;99118.94;;;-7.55;70.50
49178;BME280;35016;55.674;37.468;2023-02-28T04:19:55;99111.59;;;-7.52;70.22
49178;BME280;35016;55.674;37.468;2023-02-28T04:22:47;99104.63;;;-7.53;70.31
49178;BME280;35016;55.674;37.468;2023-02-28T04:25:13;99113.25;;;-7.51;70.55
49178;BME280;35016;55.674;37.468;2023-02-28T04:27:40;99108.81;;;-7.50;70.26
49178;BME280;35016;55.674;37.468;2023-02-28T04:30:08;99114.88;;;-7.50;69.68
49178;BME280;35016;55.674;37.468;2023-02-28T04:32:35;99105.84;;;-7.47;69.57
49178;BME280;35016;55.674;37.468;2023-02-28T04:35:03;99105.03;;;-7.47;69.65
49178;BME280;35016;55.674;37.468;2023-02-28T04:37:30;99107.66;;;-7.47;69.64
49178;BME280;35016;55.674;37.468;2023-02-28T04:40:02;99113.44;;;-7.44;69.54
49178;BME280;35016;55.674;37.468;2023-02-28T04:42:29;99102.75;;;-7.42;70.42
49178;BME280;35016;55.674;37.468;2023-02-28T04:45:05;99101.63;;;-7.40;69.50
49178;BME280;35016;55.674;37.468;2023-02-28T04:47:36;99089.94;;;-7.37;70.06
49178;BME280;35016;55.674;37.468;2023-02-28T04:50:05;99088.81;;;-7.35;70.02
49178;BME280;35016;55.674;37.468;2023-02-28T04:52:37;99084.22;;;-7.33;70.21
49178;BME280;35016;55.674;37.468;2023-02-28T04:55:04;99069.75;;;-7.29;69.74
49178;BME280;35016;55.674;37.468;2023-02-28T04:57:40;99076.34;;;-7.25;69.82
49178;BME280;35016;55.674;37.468;2023-02-28T05:00:12;99055.66;;;-7.20;69.98
49178;BME280;35016;55.674;37.468;2023-02-28T05:02:42;99071.13;;;-7.16;70.15
49178;BME280;35016;55.674;37.468;2023-02-28T05:05:09;99068.19;;;-7.13;69.95
49178;BME280;35016;55.674;37.468;2023-02-28T05:07:36;99056.19;;;-7.08;69.77
49178;BME280;35016;55.674;37.468;2023-02-28T05:10:03;99059.16;;;-7.03;69.44
49178;BME280;35016;55.674;37.468;2023-02-28T05:12:32;99052.75;;;-7.00;69.75
49178;BME280;35016;55.674;37.468;2023-02-28T05:14:59;99084.72;;;-6.95;69.95
49178;BME280;35016;55.674;37.468;2023-02-28T05:17:28;99045.41;;;-6.89;69.50
49178;BME280;35016;55.674;37.468;2023-02-28T05:19:55;99032.09;;;-6.79;69.59
49178;BME280;35016;55.674;37.468;2023-02-28T05:22:40;99018.75;;;-6.69;69.48
49178;BME280;35016;55.674;37.468;2023-02-28T05:25:08;99016.78;;;-6.67;69.23
49178;BME280;35016;55.674;37.468;2023-02-28T05:27:38;99033.44;;;-6.67;69.19
49178;BME280;35016;55.674;37.468;2023-02-28T05:30:05;99005.63;;;-6.61;69.04
49178;BME280;35016;55.674;37.468;2023-02-28T05:32:33;98991.94;;;-6.57;69.73
49178;BME280;35016;55.674;37.468;2023-02-28T05:35:00;98984.38;;;-6.51;69.26
49178;BME280;35016;55.674;37.468;2023-02-28T05:37:28;98989.31;;;-6.48;69.11
49178;BME280;35016;55.674;37.468;2023-02-28T05:39:55;98981.06;;;-6.45;69.29
49178;BME280;35016;55.674;37.468;2023-02-28T05:42:22;98966.72;;;-6.43;68.80
49178;BME280;35016;55.674;37.468;2023-02-28T05:44:49;98982.88;;;-6.38;69.08
49178;BME280;35016;55.674;37.468;2023-02-28T05:47:16;98961.31;;;-6.33;69.06
49178;BME280;35016;55.674;37.468;2023-02-28T05:49:44;98950.25;;;-6.29;69.24
49178;BME280;35016;55.674;37.468;2023-02-28T05:52:11;98947.28;;;-6.26;69.31
49178;BME280;35016;55.674;37.468;2023-02-28T05:54:38;98953.72;;;-6.20;68.88
49178;BME280;35016;55.674;37.468;2023-02-28T05:57:05;98952.03;;;-6.13;69.06
49178;BME280;35016;55.674;37.468;2023-02-28T05:59:48;98937.34;;;-6.07;68.93
49178;BME280;35016;55.674;37.468;2023-02-28T06:02:15;98942.31;;;-6.04;68.96
49178;BME280;35016;55.674;37.468;2023-02-28T06:04:43;98927.81;;;-6.00;68.94
49178;BME280;35016;55.674;37.468;2023-02-28T06:07:10;98917.06;;;-5.99;68.81
49178;BME280;35016;55.674;37.468;2023-02-28T06:09:37;98904.69;;;-5.98;68.43
49178;BME280;35016;55.674;37.468;2023-02-28T06:12:05;98921.19;;;-5.96;68.46
49178;BME280;35016;55.674;37.468;2023-02-28T06:14:33;98903.03;;;-5.91;68.79
49178;BME280;35016;55.674;37.468;2023-02-28T06:17:02;98887.03;;;-5.89;68.87
49178;BME280;35016;55.674;37.468;2023-02-28T06:19:29;98873.09;;;-5.83;68.54
49178;BME280;35016;55.674;37.468;2023-02-28T06:21:57;98901.50;;;-5.77;68.51
49178;BME280;35016;55.674;37.468;2023-02-28T06:24:25;98881.50;;;-5.72;68.41
49178;BME280;35016;55.674;37.468;2023-02-28T06:26:54;98888.56;;;-5.64;68.45
49178;BME280;35016;55.674;37.468;2023-02-28T06:29:21;98881.41;;;-5.55;67.75
49178;BME280;35016;55.674;37.468;2023-02-28T06:31:51;98889.50;;;-5.49;68.08
49178;BME280;35016;55.674;37.468;2023-02-28T06:34:19;98872.94;;;-5.43;68.13
49178;BME280;35016;55.674;37.468;2023-02-28T06:36:46;98864.34;;;-5.37;67.54
49178;BME280;35016;55.674;37.468;2023-02-28T06:39:14;98840.50;;;-5.28;67.29
49178;BME280;35016;55.674;37.468;2023-02-28T06:41:41;98851.88;;;-5.20;67.44
49178;BME280;35016;55.674;37.468;2023-02-28T06:44:20;98846.00;;;-5.07;67.64
49178;BME280;35016;55.674;37.468;2023-02-28T06:46:47;98839.78;;;-4.91;67.70
49178;BME280;35016;55.674;37.468;2023-02-28T06:49:14;98844.28;;;-4.77;67.42
49178;BME280;35016;55.674;37.468;2023-02-28T06:51:43;98858.53;;;-4.63;67.85
49178;BME280;35016;55.674;37.468;2023-02-28T06:54:12;98834.31;;;-4.52;66.96
49178;BME280;35016;55.674;37.468;2023-02-28T06:56:40;98822.81;;;-4.45;65.94
49178;BME280;35016;55.674;37.468;2023-02-28T06:59:06;98819.91;;;-4.35;65.61
49178;BME280;35016;55.674;37.468;2023-02-28T07:04:36;98802.06;;;-4.18;64.91
49178;BME280;35016;55.674;37.468;2023-02-28T07:07:03;98811.25;;;-4.14;65.05
49178;BME280;35016;55.674;37.468;2023-02-28T07:09:30;98786.88;;;-4.10;65.95
49178;BME280;35016;55.674;37.468;2023-02-28T07:18:25;98767.44;;;-3.87;66.54
49178;BME280;35016;55.674;37.468;2023-02-28T07:20:52;98757.41;;;-3.92;65.05
49178;BME280;35016;55.674;37.468;2023-02-28T07:23:20;98747.06;;;-3.87;65.41
49178;BME280;35016;55.674;37.468;2023-02-28T07:25:47;98750.41;;;-3.78;66.59
49178;BME280;35016;55.674;37.468;2023-02-28T07:28:14;98765.22;;;-3.69;66.34
49178;BME280;35016;55.674;37.468;2023-02-28T07:30:41;98733.50;;;-3.62;65.96
49178;BME280;35016;55.674;37.468;2023-02-28T07:33:09;98772.84;;;-3.59;66.59
49178;BME280;35016;55.674;37.468;2023-02-28T07:35:36;98751.28;;;-3.56;65.49
49178;BME280;35016;55.674;37.468;2023-02-28T07:38:03;98763.78;;;-3.50;66.39
49178;BME280;35016;55.674;37.468;2023-02-28T07:40:30;98753.28;;;-3.44;66.61
49178;BME280;35016;55.674;37.468;2023-02-28T07:42:58;98737.63;;;-3.38;66.26
49178;BME280;35016;55.674;37.468;2023-02-28T07:45:25;98716.28;;;-3.30;66.05
49178;BME280;35016;55.674;37.468;2023-02-28T07:47:52;98711.78;;;-3.30;65.51
49178;BME280;35016;55.674;37.468;2023-02-28T07:50:19;98721.81;;;-3.25;66.05
49178;BME280;35016;55.674;37.468;2023-02-28T07:52:46;98732.69;;;-3.20;65.94
49178;BME280;35016;55.674;37.468;2023-02-28T07:55:13;98721.53;;;-3.16;65.54
49178;BME280;35016;55.674;37.468;2023-02-28T07:57:40;98716.28;;;-3.09;66.19
49178;BME280;35016;55.674;37.468;2023-02-28T08:00:08;98713.28;;;-2.99;65.38
49178;BME280;35016;55.674;37.468;2023-02-28T08:02:41;98683.59;;;-2.88;65.31
49178;BME280;35016;55.674;37.468;2023-02-28T08:05:08;98695.69;;;-2.79;65.28
49178;BME280;35016;55.674;37.468;2023-02-28T08:07:35;98681.88;;;-2.68;65.61
49178;BME280;35016;55.674;37.468;2023-02-28T08:10:02;98682.94;;;-2.62;65.55
49178;BME280;35016;55.674;37.468;2023-02-28T08:12:29;98676.47;;;-2.53;65.99
49178;BME280;35016;55.674;37.468;2023-02-28T08:14:56;98678.16;;;-2.39;66.22
49178;BME280;35016;55.674;37.468;2023-02-28T08:17:22;98678.66;;;-2.29;66.00
49178;BME280;35016;55.674;37.468;2023-02-28T08:19:49;98681.53;;;-2.24;65.38
49178;BME280;35016;55.674;37.468;2023-02-28T08:22:16;98668.47;;;-2.19;65.89
49178;BME280;35016;55.674;37.468;2023-02-28T08:24:43;98664.59;;;-2.16;66.18
49178;BME280;35016;55.674;37.468;2023-02-28T08:27:10;98670.91;;;-2.17;65.64
49178;BME280;35016;55.674;37.468;2023-02-28T08:29:37;98651.09;;;-2.14;65.35
49178;BME280;35016;55.674;37.468;2023-02-28T08:32:05;98641.09;;;-2.12;65.86
49178;BME280;35016;55.674;37.468;2023-02-28T08:34:40;98644.19;;;-2.09;65.97
49178;BME280;35016;55.674;37.468;2023-02-28T08:37:07;98620.94;;;-2.00;66.00
49178;BME280;35016;55.674;37.468;2023-02-28T08:39:34;98638.94;;;-1.82;66.40
49178;BME280;35016;55.674;37.468;2023-02-28T08:42:15;98616.91;;;-1.70;66.27
49178;BME280;35016;55.674;37.468;2023-02-28T08:44:42;98655.97;;;-1.64;66.04
49178;BME280;35016;55.674;37.468;2023-02-28T08:47:09;98658.22;;;-1.67;66.03
49178;BME280;35016;55.674;37.468;2023-02-28T08:49:49;98676.34;;;-1.77;66.11
49178;BME280;35016;55.674;37.468;2023-02-28T08:52:16;98682.88;;;-1.87;66.51
49178;BME280;35016;55.674;37.468;2023-02-28T08:54:43;98672.44;;;-1.95;66.44
49178;BME280;35016;55.674;37.468;2023-02-28T08:57:10;98682.25;;;-1.95;66.33
49178;BME280;35016;55.674;37.468;2023-02-28T08:59:37;98671.16;;;-2.05;66.04
49178;BME280;35016;55.674;37.468;2023-02-28T09:02:08;98666.03;;;-2.13;65.73
49178;BME280;35016;55.674;37.468;2023-02-28T09:04:35;98680.94;;;-2.12;66.02
49178;BME280;35016;55.674;37.468;2023-02-28T09:07:02;98652.16;;;-2.09;66.18
49178;BME280;35016;55.674;37.468;2023-02-28T09:09:29;98647.66;;;-2.08;66.17
49178;BME280;35016;55.674;37.468;2023-02-28T09:11:57;98656.84;;;-2.04;66.35
49178;BME280;35016;55.674;37.468;2023-02-28T09:14:24;98630.34;;;-1.98;65.79
49178;BME280;35016;55.674;37.468;2023-02-28T09:16:51;98627.91;;;-1.93;66.15
49178;BME280;35016;55.674;37.468;2023-02-28T09:19:18;98612.97;;;-1.87;66.12
49178;BME280;35016;55.674;37.468;2023-02-28T09:21:45;98612.16;;;-1.81;66.00
49178;BME280;35016;55.674;37.468;2023-02-28T09:24:12;98606.25;;;-1.76;66.07
49178;BME280;35016;55.674;37.468;2023-02-28T09:26:41;98620.59;;;-1.71;66.06
49178;BME280;35016;55.674;37.468;2023-02-28T09:29:29;98592.75;;;-1.75;65.42
49178;BME280;35016;55.674;37.468;2023-02-28T09:31:59;98582.34;;;-1.76;65.17
49178;BME280;35016;55.674;37.468;2023-02-28T09:34:27;98588.66;;;-1.77;65.46
49178;BME280;35016;55.674;37.468;2023-02-28T09:36:54;98613.59;;;-1.78;65.38
49178;BME280;35016;55.674;37.468;2023-02-28T09:39:21;98638.34;;;-1.78;65.47
49178;BME280;35016;55.674;37.468;2023-02-28T09:41:50;98610.34;;;-1.80;65.58
49178;BME280;35016;55.674;37.468;2023-02-28T09:47:18;98609.09;;;-1.84;65.69
49178;BME280;35016;55.674;37.468;2023-02-28T09:49:52;98608.28;;;-1.85;65.84
49178;BME280;35016;55.674;37.468;2023-02-28T09:52:21;98597.44;;;-1.83;65.39
49178;BME280;35016;55.674;37.468;2023-02-28T09:54:50;98589.28;;;-1.75;65.51
49178;BME280;35016;55.674;37.468;2023-02-28T10:05:00;98593.97;;;-1.84;65.61
49178;BME280;35016;55.674;37.468;2023-02-28T10:10:20;98552.28;;;-1.83;65.72
49178;BME280;35016;55.674;37.468;2023-02-28T10:12:48;98535.94;;;-1.80;65.52
49178;BME280;35016;55.674;37.468;2023-02-28T10:15:21;98563.13;;;-1.78;65.66
49178;BME280;35016;55.674;37.468;2023-02-28T10:17:49;98558.41;;;-1.76;65.74
49178;BME280;35016;55.674;37.468;2023-02-28T10:20:34;98571.91;;;-1.78;65.71
49178;BME280;35016;55.674;37.468;2023-02-28T10:23:09;98564.97;;;-1.79;65.62
49178;BME280;35016;55.674;37.468;2023-02-28T10:25:38;98524.91;;;-1.84;65.52
49178;BME280;35016;55.674;37.468;2023-02-28T10:30:46;98514.69;;;-1.74;65.95
49178;BME280;35016;55.674;37.468;2023-02-28T10:35:44;98503.88;;;-1.72;65.63
49178;BME280;35016;55.674;37.468;2023-02-28T10:38:20;98527.78;;;-1.72;65.47
49178;BME280;35016;55.674;37.468;2023-02-28T10:40:47;98518.56;;;-1.76;65.54
49178;BME280;35016;55.674;37.468;2023-02-28T10:45:58;98524.91;;;-1.77;65.56
49178;BME280;35016;55.674;37.468;2023-02-28T10:48:30;98516.94;;;-1.84;65.58
49178;BME280;35016;55.674;37.468;2023-02-28T10:50:58;98508.34;;;-1.86;66.06
49178;BME280;35016;55.674;37.468;2023-02-28T10:53:37;98509.38;;;-1.87;66.08
49178;BME280;35016;55.674;37.468;2023-02-28T10:56:27;98511.22;;;-1.88;66.33
49178;BME280;35016;55.674;37.468;2023-02-28T11:01:24;98502.63;;;-1.90;65.85
49178;BME280;35016;55.674;37.468;2023-02-28T11:03:53;98498.34;;;-1.91;66.12
49178;BME280;35016;55.674;37.468;2023-02-28T11:06:26;98487.31;;;-1.88;66.13
49178;BME280;35016;55.674;37.468;2023-02-28T11:08:55;98469.09;;;-1.84;66.06
49178;BME280;35016;55.674;37.468;2023-02-28T11:11:23;98474.81;;;-1.80;66.18
49178;BME280;35016;55.674;37.468;2023-02-28T11:13:53;98468.09;;;-1.83;66.21
49178;BME280;35016;55.674;37.468;2023-02-28T11:16:21;98462.56;;;-1.81;66.30
49178;BME280;35016;55.674;37.468;2023-02-28T11:18:49;98457.25;;;-1.81;66.04
49178;BME280;35016;55.674;37.468;2023-02-28T11:21:24;98466.44;;;-1.84;66.05
49178;BME280;35016;55.674;37.468;2023-02-28T11:24:00;98460.13;;;-1.90;66.22
49178;BME280;35016;55.674;37.468;2023-02-28T11:26:44;98471.78;;;-1.91;66.49
49178;BME280;35016;55.674;37.468;2023-02-28T11:29:29;98440.72;;;-1.90;66.54
49178;BME280;35016;55.674;37.468;2023-02-28T11:32:19;98444.81;;;-1.94;66.60
49178;BME280;35016;55.674;37.468;2023-02-28T11:34:45;98496.28;;;-1.95;66.48
49178;BME280;35016;55.674;37.468;2023-02-28T11:37:18;98459.53;;;-1.98;66.40
49178;BME280;35016;55.674;37.468;2023-02-28T11:39:45;98455.44;;;-2.01;66.40
49178;BME280;35016;55.674;37.468;2023-02-28T11:47:42;98436.22;;;-1.90;66.70
49178;BME280;35016;55.674;37.468;2023-02-28T11:52:54;98430.28;;;-1.85;66.65
49178;BME280;35016;55.674;37.468;2023-02-28T11:55:39;98440.69;;;-1.83;66.64
49178;BME280;35016;55.674;37.468;2023-02-28T12:05:46;98433.97;;;-1.73;66.84
49178;BME280;35016;55.674;37.468;2023-02-28T12:08:26;98429.44;;;-1.79;66.68
49178;BME280;35016;55.674;37.468;2023-02-28T12:16:00;98421.50;;;-1.85;66.98
49178;BME280;35016;55.674;37.468;2023-02-28T12:24:13;98418.44;;;-1.96;67.39
49178;BME280;35016;55.674;37.468;2023-02-28T12:26:46;98408.03;;;-1.97;67.48
49178;BME280;35016;55.674;37.468;2023-02-28T12:29:19;98407.41;;;-1.99;68.05
49178;BME280;35016;55.674;37.468;2023-02-28T12:31:59;98417.03;;;-1.98;67.71
49178;BME280;35016;55.674;37.468;2023-02-28T12:34:31;98413.34;;;-1.97;67.53
49178;BME280;35016;55.674;37.468;2023-02-28T12:37:02;98400.06;;;-1.97;67.70
49178;BME280;35016;55.674;37.468;2023-02-28T12:39:31;98395.56;;;-1.97;67.95
49178;BME280;35016;55.674;37.468;2023-02-28T12:42:28;98383.31;;;-1.98;68.21
49178;BME280;35016;55.674;37.468;2023-02-28T12:47:40;98373.72;;;-1.99;68.38
49178;BME280;35016;55.674;37.468;2023-02-28T12:50:12;98378.63;;;-2.02;68.36
49178;BME280;35016;55.674;37.468;2023-02-28T12:52:42;98378.41;;;-2.01;68.41
49178;BME280;35016;55.674;37.468;2023-02-28T12:55:14;98347.56;;;-2.02;68.31
49178;BME280;35016;55.674;37.468;2023-02-28T12:57:49;98368.81;;;-2.02;68.40
49178;BME280;35016;55.674;37.468;2023-02-28T13:00:20;98353.25;;;-2.05;68.81
49178;BME280;35016;55.674;37.468;2023-02-28T13:05:25;98340.59;;;-2.09;69.45
49178;BME280;35016;55.674;37.468;2023-02-28T13:19:16;98321.41;;;-1.98;68.82
49178;BME280;35016;55.674;37.468;2023-02-28T13:22:02;98331.41;;;-2.00;68.71
49178;BME280;35016;55.674;37.468;2023-02-28T13:27:39;98321.78;;;-1.95;69.05
49178;BME280;35016;55.674;37.468;2023-02-28T13:38:54;98316.50;;;-1.95;69.47
49178;BME280;35016;55.674;37.468;2023-02-28T13:43:59;98297.06;;;-1.95;69.34
49178;BME280;35016;55.674;37.468;2023-02-28T13:46:29;98294.22;;;-1.94;69.52
49178;BME280;35016;55.674;37.468;2023-02-28T13:51:48;98284.78;;;-1.90;69.86
49178;BME280;35016;55.674;37.468;2023-02-28T14:00:02;98286.44;;;-1.89;69.53
49178;BME280;35016;55.674;37.468;2023-02-28T14:08:16;98295.19;;;-1.81;69.78
49178;BME280;35016;55.674;37.468;2023-02-28T14:10:46;98275.78;;;-1.82;69.93
49178;BME280;35016;55.674;37.468;2023-02-28T14:17:05;98280.44;;;-1.77;69.51
49178;BME280;35016;55.674;37.468;2023-02-28T14:19:34;98273.28;;;-1.77;69.96
49178;BME280;35016;55.674;37.468;2023-02-28T14:22:21;98289.03;;;-1.75;70.09
49178;BME280;35016;55.674;37.468;2023-02-28T14:27:48;98254.69;;;-1.70;69.79
49178;BME280;35016;55.674;37.468;2023-02-28T14:32:47;98250.56;;;-1.66;69.74
49178;BME280;35016;55.674;37.468;2023-02-28T14:35:35;98259.97;;;-1.64;69.54
49178;BME280;35016;55.674;37.468;2023-02-28T14:38:05;98285.72;;;-1.64;69.61
49178;BME280;35016;55.674;37.468;2023-02-28T14:40:36;98238.09;;;-1.66;69.80
49178;BME280;35016;55.674;37.468;2023-02-28T14:43:16;98259.38;;;-1.66;70.09
49178;BME280;35016;55.674;37.468;2023-02-28T14:46:04;98229.53;;;-1.68;70.25
49178;BME280;35016;55.674;37.468;2023-02-28T14:48:33;98225.25;;;-1.69;69.89
49178;BME280;35016;55.674;37.468;2023-02-28T14:51:04;98236.09;;;-1.70;70.09
49178;BME280;35016;55.674;37.468;2023-02-28T14:53:35;98234.47;;;-1.71;70.11
49178;BME280;35016;55.674;37.468;2023-02-28T14:56:05;98224.84;;;-1.72;70.18
49178;BME280;35016;55.674;37.468;2023-02-28T14:58:35;98223.00;;;-1.72;70.10
49178;BME280;35016;55.674;37.468;2023-02-28T15:01:03;98222.19;;;-1.72;70.52
49178;BME280;35016;55.674;37.468;2023-02-28T15:03:39;98213.41;;;-1.73;70.79
49178;BME280;35016;55.674;37.468;2023-02-28T15:06:15;98216.66;;;-1.71;70.59
49178;BME280;35016;55.674;37.468;2023-02-28T15:08:48;98231.97;;;-1.66;70.65
49178;BME280;35016;55.674;37.468;2023-02-28T15:11:34;98195.16;;;-1.63;70.57
49178;BME280;35016;55.674;37.468;2023-02-28T15:14:18;98209.84;;;-1.60;70.44
49178;BME280;35016;55.674;37.468;2023-02-28T15:16:51;98216.59;;;-1.58;70.33
49178;BME280;35016;55.674;37.468;2023-02-28T15:19:30;98210.03;;;-1.55;70.27
49178;BME280;35016;55.674;37.468;2023-02-28T15:22:04;98213.28;;;-1.53;70.52
49178;BME280;35016;55.674;37.468;2023-02-28T15:24:43;98206.72;;;-1.50;70.36
49178;BME280;35016;55.674;37.468;2023-02-28T15:30:17;98208.72;;;-1.46;70.51
49178;BME280;35016;55.674;37.468;2023-02-28T15:35:40;98214.63;;;-1.37;70.66
49178;BME280;35016;55.674;37.468;2023-02-28T15:38:23;98222.19;;;-1.34;70.55
49178;BME280;35016;55.674;37.468;2023-02-28T15:41:20;98200.25;;;-1.30;70.69
49178;BME280;35016;55.674;37.468;2023-02-28T15:43:57;98202.47;;;-1.27;70.51